Buenos Aires, Argentina

2:42 AM ART on September 02, 2015 (GMT -0300)
Chacarita | | Change Station
CLOSE
Current Station
Personal Weather Station
Location: Buenos Aires, AUTONOMOUS CITY OF BUENOS AIRES
Elevation: 82 ft
Nearby Weather Stations

Elev 82 ft 34.58 °S, 58.45 °W | Updated 14 seconds ago

Clear
Clear
55.8 °F
Feels Like 55.8 °F
N
1.0
Wind Variable Wind from South

Today
High -- | Low -- °F
--% Chance of Precip.
Yesterday
High -- | Low -- °F
Precip. -- in
7:11 AM 6:35 PM
Waning Gibbous, 83% visible
Pressure 30.33 in
Visibility -9999.0 miles
Clouds
Dew Point 40 °F
Humidity 55%
Rainfall 0.00 in
Snow Depth Not available.
UV Not available.
Pollen Not available.
Air Quality Not available.
Flu Activity Not available.
METAR SABE 020500Z 11008G19KT CAVOK 11/05 Q1027
Pressure 30.33 in
Visibility -9999.0 miles
Clouds
Dew Point 40 °F
Humidity 55%
Rainfall 0.00 in
Snow Depth Not available.
UV Not available.
Pollen Not available.
Air Quality Not available.
Flu Activity Not available.
METAR SABE 020500Z 11008G19KT CAVOK 11/05 Q1027

10-Day Weather Forecast

×

Almanac

Astronomy

Sep. 02, 2015 Rise Set
Actual Time
Civil Twilight
Nautical Twilight
Astronomical Twilight
Moon
Length of Visible Light
Length of Day
Tomorrow will be .
, % of the Moon is Illuminated

Today's Extremes

Country Highs Country Lows

Community

WunderPhotos

Upload Photos

1,851,709 photos uploaded!

WunderBlogs® & News

Nearby

Air Quality

  Air Quality AQ Index Pollutant
Not available.

Snow Depth

Station Depth Elevation

Earthquake Activity

City Distance Mag. Time & Date
Minimum magnitude displayed is 2.5.

Coastal Water Temperatures

Place Temperature

Stations

Nearby Weather Stations

Station Location Temp. Windchill Dew Point Humidity Wind Precip. Elev Updated Type